Lumberton Municipal Airport Lumberton US
ICAO: KLBT
IATA: LBT
Category: Medium
Scheduled Services: No

Elevation: 126 ft
TransAlt. 18000 ft.

Airport Communications:
FAYETTEVILLE APP/DEP:133
ASOS:134.775
CTAF/UNICOM:122.8

KLBT Zoom In..

Runways:

(A) RW 05 length 5502 ft width 150 ft
ILS 108.95 / hdg 53

(B) RW 13 length 5003 ft width 150 ft
---- / hdg 133

(C) RW 23 length 5502 ft width 150 ft
---- / hdg 233

(D) RW 31 length 5003 ft width 150 ft
---- / hdg 313

Location; KLBT
Day. 19 / Time. 20.54 Zulu
* Altimeter: 29.99
* Temperature: 32° c. 89.6°f.
* Wind from: 110° Speed 06 kn.
Dewpoint: 17° c.
Visibility: 10 Statute Miles.
Clouds: Scattered 7000 ft.

KLBT 192054Z AUTO 11006KT 10SM SCT070 32/17 A2999 RMK AO2 SLP153 T03170167 56015


Wind From 110°
Speed 06 kn.

 
 
jpsmedia.com for Web Design worldairports.se 2018   terms of use